KOGD/OGD METAR and TAF weather

Enter ICAO airport designator
Station Type Date Time Source
KOGD METAR 2021/04/14 20:53 UTC NOAA

KOGD 142053Z 03006KT 10SM BKN042 BKN050 07/01 A2983 RMK AO2 RAE30 SLP091 P0000 60001 T00720006 55001


Station Type Date Time Source
KOGD Decoded METAR 2021/04/14 20:53 UTC NOAA

OGDEN-HINCKLEY AIRPORT, UT, United States (KOGD) 41-12N 112-01W 1353M
Apr 14, 2021 - 04:53 PM EDT / 2021.04.14 2053 UTC
Wind: from the NNE (030 degrees) at 7 MPH (6 KT):0
Visibility: 10 mile(s):0
Sky conditions: mostly cloudy
Precipitation last hour: A trace
Temperature: 45.0 F (7.2 C)
Dew Point: 33.1 F (0.6 C)
Relative Humidity: 62%
Pressure (altimeter): 29.83 in. Hg (1010 hPa)
Pressure tendency: 0.00 inches (0.1 hPa) lower than three hours ago
ob: KOGD 142053Z 03006KT 10SM BKN042 BKN050 07/01 A2983 RMK AO2 RAE30 SLP091 P0000 60001 T00720006 55001
cycle: 21

Station Type Date Time Source
KOGD TAF 2021/04/14 18:42 UTC NOAA

TAF KOGD 141740Z 1418/1518 11014G28KT 1SM -SHSNRA BKN010 OVC030
FM142000 06016G24KT 5SM -SHRASN BKN020 OVC040
FM150000 VRB06KT P6SM VCSH OVC050

Example: see airport list